sensor_id;sensor_type;location;lat;lon;timestamp;temperature;humidity
75738;DHT22;64356;45.638;13.764;2023-07-02T00:01:10;26.40;60.20
75738;DHT22;64356;45.638;13.764;2023-07-02T00:03:37;26.40;60.20
75738;DHT22;64356;45.638;13.764;2023-07-02T00:06:03;26.40;60.20
75738;DHT22;64356;45.638;13.764;2023-07-02T00:08:29;26.40;60.20
75738;DHT22;64356;45.638;13.764;2023-07-02T00:10:55;26.40;60.20
75738;DHT22;64356;45.638;13.764;2023-07-02T00:13:20;26.40;60.20
75738;DHT22;64356;45.638;13.764;2023-07-02T00:15:46;26.40;60.30
75738;DHT22;64356;45.638;13.764;2023-07-02T00:18:12;26.40;60.40
75738;DHT22;64356;45.638;13.764;2023-07-02T00:20:42;26.30;60.40
75738;DHT22;64356;45.638;13.764;2023-07-02T00:23:07;26.40;60.50
75738;DHT22;64356;45.638;13.764;2023-07-02T00:25:35;26.40;60.50
75738;DHT22;64356;45.638;13.764;2023-07-02T00:28:02;26.40;60.60
75738;DHT22;64356;45.638;13.764;2023-07-02T00:30:28;26.30;60.50
75738;DHT22;64356;45.638;13.764;2023-07-02T00:32:53;26.40;60.60
75738;DHT22;64356;45.638;13.764;2023-07-02T00:35:19;26.40;60.60
75738;DHT22;64356;45.638;13.764;2023-07-02T00:37:45;26.40;60.50
75738;DHT22;64356;45.638;13.764;2023-07-02T00:40:11;26.40;60.50
75738;DHT22;64356;45.638;13.764;2023-07-02T00:42:37;26.30;60.40
75738;DHT22;64356;45.638;13.764;2023-07-02T00:45:03;26.30;60.50
75738;DHT22;64356;45.638;13.764;2023-07-02T00:47:30;26.30;60.40
75738;DHT22;64356;45.638;13.764;2023-07-02T00:49:57;26.30;60.40
75738;DHT22;64356;45.638;13.764;2023-07-02T00:52:23;26.30;60.40
75738;DHT22;64356;45.638;13.764;2023-07-02T00:54:51;26.40;60.40
75738;DHT22;64356;45.638;13.764;2023-07-02T00:57:17;26.40;60.40
75738;DHT22;64356;45.638;13.764;2023-07-02T00:59:43;26.30;60.30
75738;DHT22;64356;45.638;13.764;2023-07-02T01:02:09;26.40;60.30
75738;DHT22;64356;45.638;13.764;2023-07-02T01:04:36;26.30;60.30
75738;DHT22;64356;45.638;13.764;2023-07-02T01:07:02;26.30;60.80
75738;DHT22;64356;45.638;13.764;2023-07-02T01:09:34;26.30;60.20
75738;DHT22;64356;45.638;13.764;2023-07-02T01:12:03;26.30;60.20
75738;DHT22;64356;45.638;13.764;2023-07-02T01:14:40;26.30;60.20
75738;DHT22;64356;45.638;13.764;2023-07-02T01:17:07;26.30;60.30
75738;DHT22;64356;45.638;13.764;2023-07-02T01:22:08;26.30;60.40
75738;DHT22;64356;45.638;13.764;2023-07-02T01:24:35;26.30;60.40
75738;DHT22;64356;45.638;13.764;2023-07-02T01:27:01;26.30;60.40
75738;DHT22;64356;45.638;13.764;2023-07-02T01:29:29;26.30;60.40
75738;DHT22;64356;45.638;13.764;2023-07-02T01:31:56;26.30;60.30
75738;DHT22;64356;45.638;13.764;2023-07-02T01:34:22;26.30;60.30
75738;DHT22;64356;45.638;13.764;2023-07-02T01:36:48;26.30;60.30
75738;DHT22;64356;45.638;13.764;2023-07-02T01:39:14;26.30;60.30
75738;DHT22;64356;45.638;13.764;2023-07-02T01:41:49;26.30;60.30
75738;DHT22;64356;45.638;13.764;2023-07-02T01:44:15;26.30;60.30
75738;DHT22;64356;45.638;13.764;2023-07-02T01:46:40;26.30;60.30
75738;DHT22;64356;45.638;13.764;2023-07-02T01:49:06;26.30;60.30
75738;DHT22;64356;45.638;13.764;2023-07-02T01:51:33;26.30;60.20
75738;DHT22;64356;45.638;13.764;2023-07-02T01:53:58;26.30;60.20
75738;DHT22;64356;45.638;13.764;2023-07-02T01:56:24;26.30;60.20
75738;DHT22;64356;45.638;13.764;2023-07-02T01:58:50;26.30;60.20
75738;DHT22;64356;45.638;13.764;2023-07-02T02:01:16;26.30;60.10
75738;DHT22;64356;45.638;13.764;2023-07-02T02:03:41;26.30;60.10
75738;DHT22;64356;45.638;13.764;2023-07-02T02:06:07;26.30;60.10
75738;DHT22;64356;45.638;13.764;2023-07-02T02:08:33;26.30;60.10
75738;DHT22;64356;45.638;13.764;2023-07-02T02:10:58;26.30;60.10
75738;DHT22;64356;45.638;13.764;2023-07-02T02:13:26;26.30;60.10
75738;DHT22;64356;45.638;13.764;2023-07-02T02:15:53;26.30;60.10
75738;DHT22;64356;45.638;13.764;2023-07-02T02:18:19;26.30;60.00
75738;DHT22;64356;45.638;13.764;2023-07-02T02:20:44;26.30;60.00
75738;DHT22;64356;45.638;13.764;2023-07-02T02:23:11;26.20;59.90
75738;DHT22;64356;45.638;13.764;2023-07-02T02:25:36;26.30;60.00
75738;DHT22;64356;45.638;13.764;2023-07-02T02:28:02;26.30;59.90
75738;DHT22;64356;45.638;13.764;2023-07-02T02:30:28;26.30;59.90
75738;DHT22;64356;45.638;13.764;2023-07-02T02:32:53;26.30;59.80
75738;DHT22;64356;45.638;13.764;2023-07-02T02:35:19;26.30;59.80
75738;DHT22;64356;45.638;13.764;2023-07-02T02:37:45;26.30;59.70
75738;DHT22;64356;45.638;13.764;2023-07-02T02:40:11;26.30;59.70
75738;DHT22;64356;45.638;13.764;2023-07-02T02:42:38;26.30;59.70
75738;DHT22;64356;45.638;13.764;2023-07-02T02:45:04;26.30;59.70
75738;DHT22;64356;45.638;13.764;2023-07-02T02:47:30;26.20;59.60
75738;DHT22;64356;45.638;13.764;2023-07-02T02:49:56;26.20;59.60
75738;DHT22;64356;45.638;13.764;2023-07-02T02:52:21;26.30;59.60
75738;DHT22;64356;45.638;13.764;2023-07-02T02:54:47;26.20;59.60
75738;DHT22;64356;45.638;13.764;2023-07-02T02:57:13;26.30;59.60
75738;DHT22;64356;45.638;13.764;2023-07-02T02:59:39;26.20;59.50
75738;DHT22;64356;45.638;13.764;2023-07-02T03:02:05;26.20;59.50
75738;DHT22;64356;45.638;13.764;2023-07-02T03:04:30;26.20;59.40
75738;DHT22;64356;45.638;13.764;2023-07-02T03:06:56;26.30;59.50
75738;DHT22;64356;45.638;13.764;2023-07-02T03:09:22;26.20;59.30
75738;DHT22;64356;45.638;13.764;2023-07-02T03:11:48;26.20;59.30
75738;DHT22;64356;45.638;13.764;2023-07-02T03:14:14;26.20;59.30
75738;DHT22;64356;45.638;13.764;2023-07-02T03:16:41;26.20;59.20
75738;DHT22;64356;45.638;13.764;2023-07-02T03:19:07;26.20;59.20
75738;DHT22;64356;45.638;13.764;2023-07-02T03:21:33;26.20;59.20
75738;DHT22;64356;45.638;13.764;2023-07-02T03:23:59;26.20;59.20
75738;DHT22;64356;45.638;13.764;2023-07-02T03:26:25;26.20;59.20
75738;DHT22;64356;45.638;13.764;2023-07-02T03:28:50;26.20;59.20
75738;DHT22;64356;45.638;13.764;2023-07-02T03:31:16;26.20;59.20
75738;DHT22;64356;45.638;13.764;2023-07-02T03:33:42;26.20;59.20
75738;DHT22;64356;45.638;13.764;2023-07-02T03:36:07;26.20;59.20
75738;DHT22;64356;45.638;13.764;2023-07-02T03:38:33;26.20;59.20
75738;DHT22;64356;45.638;13.764;2023-07-02T03:40:59;26.20;59.20
75738;DHT22;64356;45.638;13.764;2023-07-02T03:43:24;26.20;59.20
75738;DHT22;64356;45.638;13.764;2023-07-02T03:45:54;26.20;59.10
75738;DHT22;64356;45.638;13.764;2023-07-02T03:48:20;26.20;59.10
75738;DHT22;64356;45.638;13.764;2023-07-02T03:50:45;26.20;59.10
75738;DHT22;64356;45.638;13.764;2023-07-02T03:53:11;26.20;59.00
75738;DHT22;64356;45.638;13.764;2023-07-02T03:55:37;26.20;59.00
75738;DHT22;64356;45.638;13.764;2023-07-02T03:58:04;26.20;59.00
75738;DHT22;64356;45.638;13.764;2023-07-02T04:00:30;26.20;59.00
75738;DHT22;64356;45.638;13.764;2023-07-02T04:02:55;26.20;59.00
75738;DHT22;64356;45.638;13.764;2023-07-02T04:05:22;26.20;59.00
75738;DHT22;64356;45.638;13.764;2023-07-02T04:07:47;26.20;59.00
75738;DHT22;64356;45.638;13.764;2023-07-02T04:10:13;26.20;58.90
75738;DHT22;64356;45.638;13.764;2023-07-02T04:12:39;26.20;58.90
75738;DHT22;64356;45.638;13.764;2023-07-02T04:15:05;26.20;58.90
75738;DHT22;64356;45.638;13.764;2023-07-02T04:17:31;26.20;58.90
75738;DHT22;64356;45.638;13.764;2023-07-02T04:19:59;26.20;58.90
75738;DHT22;64356;45.638;13.764;2023-07-02T04:22:25;26.20;58.80
75738;DHT22;64356;45.638;13.764;2023-07-02T04:24:50;26.20;58.90
75738;DHT22;64356;45.638;13.764;2023-07-02T04:27:16;26.20;58.80
75738;DHT22;64356;45.638;13.764;2023-07-02T04:29:46;26.20;58.90
75738;DHT22;64356;45.638;13.764;2023-07-02T04:32:12;26.20;58.90
75738;DHT22;64356;45.638;13.764;2023-07-02T04:34:38;26.20;58.80
75738;DHT22;64356;45.638;13.764;2023-07-02T04:37:04;26.20;58.80
75738;DHT22;64356;45.638;13.764;2023-07-02T04:39:30;26.20;59.30
75738;DHT22;64356;45.638;13.764;2023-07-02T04:41:56;26.20;58.80
75738;DHT22;64356;45.638;13.764;2023-07-02T04:44:22;26.20;58.80
75738;DHT22;64356;45.638;13.764;2023-07-02T04:46:58;26.20;58.80
75738;DHT22;64356;45.638;13.764;2023-07-02T04:49:24;26.20;58.70
75738;DHT22;64356;45.638;13.764;2023-07-02T04:51:50;26.20;58.70
75738;DHT22;64356;45.638;13.764;2023-07-02T04:54:16;26.20;58.60
75738;DHT22;64356;45.638;13.764;2023-07-02T04:56:42;26.20;58.60
75738;DHT22;64356;45.638;13.764;2023-07-02T04:59:07;26.20;58.60
75738;DHT22;64356;45.638;13.764;2023-07-02T05:01:33;26.20;59.10
75738;DHT22;64356;45.638;13.764;2023-07-02T05:03:59;26.20;58.60
75738;DHT22;64356;45.638;13.764;2023-07-02T05:06:24;26.20;58.50
75738;DHT22;64356;45.638;13.764;2023-07-02T05:08:50;26.20;58.50
75738;DHT22;64356;45.638;13.764;2023-07-02T05:11:17;26.20;58.60
75738;DHT22;64356;45.638;13.764;2023-07-02T05:13:42;26.20;58.50
75738;DHT22;64356;45.638;13.764;2023-07-02T05:16:08;26.20;58.50
75738;DHT22;64356;45.638;13.764;2023-07-02T05:18:34;26.20;58.50
75738;DHT22;64356;45.638;13.764;2023-07-02T05:20:59;26.20;58.50
75738;DHT22;64356;45.638;13.764;2023-07-02T05:23:25;26.20;58.50
75738;DHT22;64356;45.638;13.764;2023-07-02T05:25:51;26.20;58.50
75738;DHT22;64356;45.638;13.764;2023-07-02T05:28:16;26.20;58.50
75738;DHT22;64356;45.638;13.764;2023-07-02T05:30:42;26.20;58.50
75738;DHT22;64356;45.638;13.764;2023-07-02T05:33:08;26.20;58.50
75738;DHT22;64356;45.638;13.764;2023-07-02T05:35:33;26.20;58.50
75738;DHT22;64356;45.638;13.764;2023-07-02T05:37:59;26.20;58.50
75738;DHT22;64356;45.638;13.764;2023-07-02T05:40:25;26.20;58.50
75738;DHT22;64356;45.638;13.764;2023-07-02T05:42:50;26.20;58.50
75738;DHT22;64356;45.638;13.764;2023-07-02T05:45:16;26.20;58.50
75738;DHT22;64356;45.638;13.764;2023-07-02T05:47:42;26.20;58.50
75738;DHT22;64356;45.638;13.764;2023-07-02T05:50:08;26.20;58.60
75738;DHT22;64356;45.638;13.764;2023-07-02T05:52:34;26.20;58.60
75738;DHT22;64356;45.638;13.764;2023-07-02T05:54:59;26.20;58.60
75738;DHT22;64356;45.638;13.764;2023-07-02T05:57:25;26.20;58.60
75738;DHT22;64356;45.638;13.764;2023-07-02T05:59:51;26.20;58.60
75738;DHT22;64356;45.638;13.764;2023-07-02T06:02:16;26.20;58.50
75738;DHT22;64356;45.638;13.764;2023-07-02T06:04:42;26.20;58.60
75738;DHT22;64356;45.638;13.764;2023-07-02T06:07:08;26.20;58.60
75738;DHT22;64356;45.638;13.764;2023-07-02T06:09:33;26.20;58.60
75738;DHT22;64356;45.638;13.764;2023-07-02T06:11:59;26.20;58.70
75738;DHT22;64356;45.638;13.764;2023-07-02T06:14:25;26.20;58.70
75738;DHT22;64356;45.638;13.764;2023-07-02T06:16:52;26.20;58.70
75738;DHT22;64356;45.638;13.764;2023-07-02T06:19:18;26.20;58.70
75738;DHT22;64356;45.638;13.764;2023-07-02T06:21:44;26.20;58.70
75738;DHT22;64356;45.638;13.764;2023-07-02T06:24:09;26.20;58.70
75738;DHT22;64356;45.638;13.764;2023-07-02T06:26:35;26.20;58.70
75738;DHT22;64356;45.638;13.764;2023-07-02T06:29:01;26.30;58.80
75738;DHT22;64356;45.638;13.764;2023-07-02T06:31:26;26.20;58.70
75738;DHT22;64356;45.638;13.764;2023-07-02T06:33:52;26.30;58.80
75738;DHT22;64356;45.638;13.764;2023-07-02T06:36:19;26.30;58.90
75738;DHT22;64356;45.638;13.764;2023-07-02T06:38:44;26.20;58.90
75738;DHT22;64356;45.638;13.764;2023-07-02T06:41:10;26.20;59.00
75738;DHT22;64356;45.638;13.764;2023-07-02T06:43:36;26.20;59.00
75738;DHT22;64356;45.638;13.764;2023-07-02T06:46:02;26.20;59.10
75738;DHT22;64356;45.638;13.764;2023-07-02T06:48:27;26.20;59.10
75738;DHT22;64356;45.638;13.764;2023-07-02T06:50:53;26.20;59.00
75738;DHT22;64356;45.638;13.764;2023-07-02T06:53:19;26.20;59.10
75738;DHT22;64356;45.638;13.764;2023-07-02T06:55:44;26.20;59.10
75738;DHT22;64356;45.638;13.764;2023-07-02T06:58:10;26.20;59.20
75738;DHT22;64356;45.638;13.764;2023-07-02T07:00:36;26.20;59.30
75738;DHT22;64356;45.638;13.764;2023-07-02T07:03:04;26.20;59.30
75738;DHT22;64356;45.638;13.764;2023-07-02T07:05:31;26.20;59.30
75738;DHT22;64356;45.638;13.764;2023-07-02T07:07:57;26.20;59.30
75738;DHT22;64356;45.638;13.764;2023-07-02T07:10:23;26.20;59.30
75738;DHT22;64356;45.638;13.764;2023-07-02T07:12:49;26.20;59.30
75738;DHT22;64356;45.638;13.764;2023-07-02T07:15:15;26.20;59.30
75738;DHT22;64356;45.638;13.764;2023-07-02T07:17:40;26.20;59.40
75738;DHT22;64356;45.638;13.764;2023-07-02T07:20:06;26.20;59.40
75738;DHT22;64356;45.638;13.764;2023-07-02T07:22:33;26.20;59.40
75738;DHT22;64356;45.638;13.764;2023-07-02T07:24:59;26.20;59.50
75738;DHT22;64356;45.638;13.764;2023-07-02T07:27:25;26.20;59.40
75738;DHT22;64356;45.638;13.764;2023-07-02T07:29:51;26.30;59.60
75738;DHT22;64356;45.638;13.764;2023-07-02T07:32:16;26.30;59.50
75738;DHT22;64356;45.638;13.764;2023-07-02T07:34:42;26.30;59.50
75738;DHT22;64356;45.638;13.764;2023-07-02T07:37:08;26.30;59.50
75738;DHT22;64356;45.638;13.764;2023-07-02T07:39:36;26.30;59.50
75738;DHT22;64356;45.638;13.764;2023-07-02T07:42:02;26.30;59.50
75738;DHT22;64356;45.638;13.764;2023-07-02T07:44:27;26.30;60.10
75738;DHT22;64356;45.638;13.764;2023-07-02T07:46:55;26.30;59.60
75738;DHT22;64356;45.638;13.764;2023-07-02T07:49:21;26.30;59.70
75738;DHT22;64356;45.638;13.764;2023-07-02T07:51:47;26.30;59.70
75738;DHT22;64356;45.638;13.764;2023-07-02T07:54:13;26.30;59.80
75738;DHT22;64356;45.638;13.764;2023-07-02T07:56:39;26.30;59.90
75738;DHT22;64356;45.638;13.764;2023-07-02T07:59:04;26.30;60.00
75738;DHT22;64356;45.638;13.764;2023-07-02T08:01:30;26.30;60.10
75738;DHT22;64356;45.638;13.764;2023-07-02T08:03:56;26.30;60.10
75738;DHT22;64356;45.638;13.764;2023-07-02T08:06:22;26.30;60.10
75738;DHT22;64356;45.638;13.764;2023-07-02T08:08:48;26.30;60.10
75738;DHT22;64356;45.638;13.764;2023-07-02T08:11:13;26.30;60.10
75738;DHT22;64356;45.638;13.764;2023-07-02T08:13:39;26.30;60.10
75738;DHT22;64356;45.638;13.764;2023-07-02T08:16:05;26.30;60.10
75738;DHT22;64356;45.638;13.764;2023-07-02T08:18:30;26.30;60.10
75738;DHT22;64356;45.638;13.764;2023-07-02T08:20:56;26.20;60.00
75738;DHT22;64356;45.638;13.764;2023-07-02T08:23:22;26.30;60.10
75738;DHT22;64356;45.638;13.764;2023-07-02T08:25:48;26.30;60.00
75738;DHT22;64356;45.638;13.764;2023-07-02T08:28:13;26.30;59.90
75738;DHT22;64356;45.638;13.764;2023-07-02T08:30:39;26.30;59.90
75738;DHT22;64356;45.638;13.764;2023-07-02T08:33:05;26.30;59.90
75738;DHT22;64356;45.638;13.764;2023-07-02T08:35:30;26.30;59.80
75738;DHT22;64356;45.638;13.764;2023-07-02T08:37:56;26.30;59.90
75738;DHT22;64356;45.638;13.764;2023-07-02T08:40:22;26.30;59.90
75738;DHT22;64356;45.638;13.764;2023-07-02T08:42:48;26.30;60.00
75738;DHT22;64356;45.638;13.764;2023-07-02T08:45:17;26.30;60.00
75738;DHT22;64356;45.638;13.764;2023-07-02T08:47:44;26.40;60.10
75738;DHT22;64356;45.638;13.764;2023-07-02T08:50:12;26.40;60.10
75738;DHT22;64356;45.638;13.764;2023-07-02T08:52:38;26.40;60.10
75738;DHT22;64356;45.638;13.764;2023-07-02T08:55:04;26.40;60.10
75738;DHT22;64356;45.638;13.764;2023-07-02T08:57:30;26.40;60.10
75738;DHT22;64356;45.638;13.764;2023-07-02T08:59:56;26.40;60.10
75738;DHT22;64356;45.638;13.764;2023-07-02T09:02:34;26.40;60.20
75738;DHT22;64356;45.638;13.764;2023-07-02T09:05:03;26.40;60.90
75738;DHT22;64356;45.638;13.764;2023-07-02T09:07:29;26.40;60.30
75738;DHT22;64356;45.638;13.764;2023-07-02T09:09:56;26.40;60.30
75738;DHT22;64356;45.638;13.764;2023-07-02T09:12:31;26.40;60.30
75738;DHT22;64356;45.638;13.764;2023-07-02T09:15:03;26.40;60.20
75738;DHT22;64356;45.638;13.764;2023-07-02T09:17:36;26.40;60.20
75738;DHT22;64356;45.638;13.764;2023-07-02T09:20:05;26.40;60.20
75738;DHT22;64356;45.638;13.764;2023-07-02T09:22:32;26.40;60.80
75738;DHT22;64356;45.638;13.764;2023-07-02T09:24:59;26.50;60.30
75738;DHT22;64356;45.638;13.764;2023-07-02T09:27:41;26.50;60.30
75738;DHT22;64356;45.638;13.764;2023-07-02T09:30:15;26.50;60.90
75738;DHT22;64356;45.638;13.764;2023-07-02T09:32:42;26.50;60.30
75738;DHT22;64356;45.638;13.764;2023-07-02T09:35:08;26.50;60.20
75738;DHT22;64356;45.638;13.764;2023-07-02T09:37:34;26.50;60.20
75738;DHT22;64356;45.638;13.764;2023-07-02T09:40:01;26.60;60.40
75738;DHT22;64356;45.638;13.764;2023-07-02T09:42:28;26.50;60.30
75738;DHT22;64356;45.638;13.764;2023-07-02T09:44:55;26.60;60.40
75738;DHT22;64356;45.638;13.764;2023-07-02T09:47:24;26.60;60.50
75738;DHT22;64356;45.638;13.764;2023-07-02T09:50:03;26.60;60.40
75738;DHT22;64356;45.638;13.764;2023-07-02T09:52:32;26.60;60.30
75738;DHT22;64356;45.638;13.764;2023-07-02T09:54:58;26.60;60.30
75738;DHT22;64356;45.638;13.764;2023-07-02T09:57:24;26.60;60.30
75738;DHT22;64356;45.638;13.764;2023-07-02T09:59:50;26.60;60.20
75738;DHT22;64356;45.638;13.764;2023-07-02T10:02:16;26.60;60.30
75738;DHT22;64356;45.638;13.764;2023-07-02T10:04:46;26.70;60.40
75738;DHT22;64356;45.638;13.764;2023-07-02T10:07:25;26.70;60.90
75738;DHT22;64356;45.638;13.764;2023-07-02T10:09:51;26.70;60.40
75738;DHT22;64356;45.638;13.764;2023-07-02T10:12:21;26.60;60.20
75738;DHT22;64356;45.638;13.764;2023-07-02T10:14:48;26.70;60.20
75738;DHT22;64356;45.638;13.764;2023-07-02T10:17:31;26.70;60.10
75738;DHT22;64356;45.638;13.764;2023-07-02T10:20:00;26.70;60.10
75738;DHT22;64356;45.638;13.764;2023-07-02T10:22:26;26.80;60.20
75738;DHT22;64356;45.638;13.764;2023-07-02T10:24:57;26.70;60.00
75738;DHT22;64356;45.638;13.764;2023-07-02T10:27:39;26.70;59.80
75738;DHT22;64356;45.638;13.764;2023-07-02T10:30:06;26.80;59.70
75738;DHT22;64356;45.638;13.764;2023-07-02T10:32:34;26.80;59.60
75738;DHT22;64356;45.638;13.764;2023-07-02T10:35:01;26.80;59.60
75738;DHT22;64356;45.638;13.764;2023-07-02T10:37:38;26.80;59.60
75738;DHT22;64356;45.638;13.764;2023-07-02T10:40:07;26.80;59.50
75738;DHT22;64356;45.638;13.764;2023-07-02T10:42:48;26.80;59.40
75738;DHT22;64356;45.638;13.764;2023-07-02T10:45:13;26.80;59.30
75738;DHT22;64356;45.638;13.764;2023-07-02T10:47:40;26.80;59.30
75738;DHT22;64356;45.638;13.764;2023-07-02T10:50:16;26.80;59.20
75738;DHT22;64356;45.638;13.764;2023-07-02T10:52:42;26.90;59.20
75738;DHT22;64356;45.638;13.764;2023-07-02T10:55:08;26.90;59.30
75738;DHT22;64356;45.638;13.764;2023-07-02T10:57:34;26.90;59.30
75738;DHT22;64356;45.638;13.764;2023-07-02T11:00:06;26.90;59.30
75738;DHT22;64356;45.638;13.764;2023-07-02T11:02:37;26.90;59.20
75738;DHT22;64356;45.638;13.764;2023-07-02T11:05:06;26.90;59.40
75738;DHT22;64356;45.638;13.764;2023-07-02T11:07:34;27.00;59.50
75738;DHT22;64356;45.638;13.764;2023-07-02T11:09:59;27.00;59.60
75738;DHT22;64356;45.638;13.764;2023-07-02T11:12:30;27.00;59.70
75738;DHT22;64356;45.638;13.764;2023-07-02T11:15:06;27.00;59.80
75738;DHT22;64356;45.638;13.764;2023-07-02T11:17:32;27.00;59.90
75738;DHT22;64356;45.638;13.764;2023-07-02T11:19:57;27.00;59.80
75738;DHT22;64356;45.638;13.764;2023-07-02T11:22:34;27.00;60.00
75738;DHT22;64356;45.638;13.764;2023-07-02T11:25:19;27.00;60.30
75738;DHT22;64356;45.638;13.764;2023-07-02T11:27:48;27.00;60.40
75738;DHT22;64356;45.638;13.764;2023-07-02T11:30:13;27.00;60.60
75738;DHT22;64356;45.638;13.764;2023-07-02T11:32:53;27.10;60.90
75738;DHT22;64356;45.638;13.764;2023-07-02T11:35:19;27.10;61.00
75738;DHT22;64356;45.638;13.764;2023-07-02T11:37:45;27.10;61.20
75738;DHT22;64356;45.638;13.764;2023-07-02T11:40:12;27.10;61.10
75738;DHT22;64356;45.638;13.764;2023-07-02T11:42:40;27.10;61.10
75738;DHT22;64356;45.638;13.764;2023-07-02T11:45:06;27.10;61.10
75738;DHT22;64356;45.638;13.764;2023-07-02T11:47:32;27.10;61.10
75738;DHT22;64356;45.638;13.764;2023-07-02T11:49:58;27.10;61.10
75738;DHT22;64356;45.638;13.764;2023-07-02T11:52:26;27.10;61.20
75738;DHT22;64356;45.638;13.764;2023-07-02T11:54:52;27.20;61.20
75738;DHT22;64356;45.638;13.764;2023-07-02T11:57:17;27.20;61.30
75738;DHT22;64356;45.638;13.764;2023-07-02T11:59:43;27.20;61.20
75738;DHT22;64356;45.638;13.764;2023-07-02T12:02:09;27.20;61.10
75738;DHT22;64356;45.638;13.764;2023-07-02T12:04:35;27.20;61.20
75738;DHT22;64356;45.638;13.764;2023-07-02T12:07:01;27.20;61.20
75738;DHT22;64356;45.638;13.764;2023-07-02T12:09:29;27.20;61.30
75738;DHT22;64356;45.638;13.764;2023-07-02T12:11:54;27.20;61.30
75738;DHT22;64356;45.638;13.764;2023-07-02T12:14:20;27.30;61.40
75738;DHT22;64356;45.638;13.764;2023-07-02T12:16:46;27.30;61.50
75738;DHT22;64356;45.638;13.764;2023-07-02T12:19:12;27.30;61.50
75738;DHT22;64356;45.638;13.764;2023-07-02T12:21:37;27.30;61.60
75738;DHT22;64356;45.638;13.764;2023-07-02T12:24:03;27.30;61.50
75738;DHT22;64356;45.638;13.764;2023-07-02T12:26:34;27.30;61.40
75738;DHT22;64356;45.638;13.764;2023-07-02T12:29:00;27.30;61.30
75738;DHT22;64356;45.638;13.764;2023-07-02T12:31:26;27.30;61.10
75738;DHT22;64356;45.638;13.764;2023-07-02T12:33:51;27.30;61.10
75738;DHT22;64356;45.638;13.764;2023-07-02T12:36:17;27.30;60.90
75738;DHT22;64356;45.638;13.764;2023-07-02T12:38:43;27.30;60.90
75738;DHT22;64356;45.638;13.764;2023-07-02T12:41:08;27.40;61.00
75738;DHT22;64356;45.638;13.764;2023-07-02T12:43:34;27.40;61.00
75738;DHT22;64356;45.638;13.764;2023-07-02T12:46:00;27.40;61.50
75738;DHT22;64356;45.638;13.764;2023-07-02T12:48:25;27.40;61.00
75738;DHT22;64356;45.638;13.764;2023-07-02T12:50:55;27.40;60.90
75738;DHT22;64356;45.638;13.764;2023-07-02T12:53:22;27.40;61.00
75738;DHT22;64356;45.638;13.764;2023-07-02T12:55:48;27.40;61.10
75738;DHT22;64356;45.638;13.764;2023-07-02T12:58:13;27.40;61.00
75738;DHT22;64356;45.638;13.764;2023-07-02T13:00:39;27.40;61.10
75738;DHT22;64356;45.638;13.764;2023-07-02T13:03:05;27.40;61.10
75738;DHT22;64356;45.638;13.764;2023-07-02T13:05:33;27.40;61.10
75738;DHT22;64356;45.638;13.764;2023-07-02T13:07:58;27.40;61.00
75738;DHT22;64356;45.638;13.764;2023-07-02T13:10:24;27.40;60.90
75738;DHT22;64356;45.638;13.764;2023-07-02T13:12:50;27.40;60.80
75738;DHT22;64356;45.638;13.764;2023-07-02T13:15:15;27.40;60.70
75738;DHT22;64356;45.638;13.764;2023-07-02T13:17:41;27.40;60.60
75738;DHT22;64356;45.638;13.764;2023-07-02T13:20:09;27.40;60.60
75738;DHT22;64356;45.638;13.764;2023-07-02T13:22:35;27.50;60.70
75738;DHT22;64356;45.638;13.764;2023-07-02T13:25:00;27.50;60.50
75738;DHT22;64356;45.638;13.764;2023-07-02T13:27:26;27.50;60.50
75738;DHT22;64356;45.638;13.764;2023-07-02T13:29:52;27.50;60.40
75738;DHT22;64356;45.638;13.764;2023-07-02T13:32:17;27.50;60.40
75738;DHT22;64356;45.638;13.764;2023-07-02T13:34:43;27.50;60.40
75738;DHT22;64356;45.638;13.764;2023-07-02T13:37:09;27.50;60.40
75738;DHT22;64356;45.638;13.764;2023-07-02T13:39:35;27.50;60.40
75738;DHT22;64356;45.638;13.764;2023-07-02T13:42:00;27.40;60.20
75738;DHT22;64356;45.638;13.764;2023-07-02T13:44:27;27.50;60.20
75738;DHT22;64356;45.638;13.764;2023-07-02T13:46:52;27.50;60.10
75738;DHT22;64356;45.638;13.764;2023-07-02T13:49:19;27.50;60.10
75738;DHT22;64356;45.638;13.764;2023-07-02T13:51:46;27.50;60.00
75738;DHT22;64356;45.638;13.764;2023-07-02T13:54:12;27.50;59.90
75738;DHT22;64356;45.638;13.764;2023-07-02T13:56:40;27.50;59.90
75738;DHT22;64356;45.638;13.764;2023-07-02T13:59:06;27.50;59.80
75738;DHT22;64356;45.638;13.764;2023-07-02T14:01:32;27.50;59.90
75738;DHT22;64356;45.638;13.764;2023-07-02T14:04:00;27.50;59.90
75738;DHT22;64356;45.638;13.764;2023-07-02T14:06:26;27.50;59.80
75738;DHT22;64356;45.638;13.764;2023-07-02T14:08:51;27.50;59.70
75738;DHT22;64356;45.638;13.764;2023-07-02T14:11:18;27.40;59.50
75738;DHT22;64356;45.638;13.764;2023-07-02T14:13:44;27.40;59.50
75738;DHT22;64356;45.638;13.764;2023-07-02T14:16:10;27.50;59.50
75738;DHT22;64356;45.638;13.764;2023-07-02T14:18:36;27.50;59.40
75738;DHT22;64356;45.638;13.764;2023-07-02T14:21:01;27.40;59.40
75738;DHT22;64356;45.638;13.764;2023-07-02T14:23:28;27.40;59.30
75738;DHT22;64356;45.638;13.764;2023-07-02T14:25:54;27.40;59.30
75738;DHT22;64356;45.638;13.764;2023-07-02T14:28:19;27.40;59.30
75738;DHT22;64356;45.638;13.764;2023-07-02T14:30:45;27.40;59.30
75738;DHT22;64356;45.638;13.764;2023-07-02T14:33:12;27.40;59.20
75738;DHT22;64356;45.638;13.764;2023-07-02T14:35:39;27.40;59.30
75738;DHT22;64356;45.638;13.764;2023-07-02T14:38:06;27.40;59.30
75738;DHT22;64356;45.638;13.764;2023-07-02T14:40:32;27.30;59.20
75738;DHT22;64356;45.638;13.764;2023-07-02T14:42:58;27.30;59.20
75738;DHT22;64356;45.638;13.764;2023-07-02T14:45:24;27.40;59.30
75738;DHT22;64356;45.638;13.764;2023-07-02T14:47:49;27.30;59.20
75738;DHT22;64356;45.638;13.764;2023-07-02T14:50:16;27.30;59.20
75738;DHT22;64356;45.638;13.764;2023-07-02T14:52:41;27.30;59.20
75738;DHT22;64356;45.638;13.764;2023-07-02T14:55:07;27.30;59.30
75738;DHT22;64356;45.638;13.764;2023-07-02T14:57:33;27.30;59.30
75738;DHT22;64356;45.638;13.764;2023-07-02T14:59:59;27.30;59.30
75738;DHT22;64356;45.638;13.764;2023-07-02T15:02:24;27.30;59.30
75738;DHT22;64356;45.638;13.764;2023-07-02T15:04:50;27.30;59.30
75738;DHT22;64356;45.638;13.764;2023-07-02T15:07:16;27.30;59.40
75738;DHT22;64356;45.638;13.764;2023-07-02T15:09:41;27.30;59.40
75738;DHT22;64356;45.638;13.764;2023-07-02T15:12:07;27.20;59.30
75738;DHT22;64356;45.638;13.764;2023-07-02T15:14:33;27.20;59.40